This is the latest recevied weather packets stored in our database for station/object KD0SBN-3. If no packets are shown the sender has not sent any weather packets the latest 10 day(s).
| Time | Temp. | Humidity | Pressure | Rain* | Wind** | Luminosity | Snow |
|---|---|---|---|---|---|---|---|
| 1777993840 | 5° C | 73% | 1019.8 hPa | 0 mm | - | 290 W/m² | - |
| 1777993536 | 5.56° C | 72% | 1019.8 hPa | 0 mm | - | 295 W/m² | - |
| 1777993233 | 5° C | 72% | 1019.8 hPa | 0 mm | - | 248 W/m² | - |
| 1777992929 | 5° C | 72% | 1019.9 hPa | 0 mm | - | 289 W/m² | - |
| 1777992627 | 4.44° C | 75% | 1019.8 hPa | 0 mm | - | 277 W/m² | - |
| 1777992325 | 3.89° C | 76% | 1019.9 hPa | 0 mm | - | 248 W/m² | - |
| 1777992022 | 3.89° C | 77% | 1020.2 hPa | 0 mm | - | 231 W/m² | - |
| 1777991719 | 4.44° C | 75% | 1020.3 hPa | 0 mm | - | 191 W/m² | - |
| 1777991416 | 4.44° C | 76% | 1020.4 hPa | 0 mm | - | 257 W/m² | - |
| 1777991114 | 3.89° C | 78% | 1020.4 hPa | 0 mm | - | 273 W/m² | - |
| 1777990811 | 3.89° C | 78% | 1020.3 hPa | 0 mm | - | 232 W/m² | - |
| 1777990508 | 3.33° C | 79% | 1020.3 hPa | 0 mm | - | 153 W/m² | - |
| 1777989901 | 2.22° C | 82% | 1020.3 hPa | 0 mm | - | 277 W/m² | - |
| 1777989598 | 2.22° C | 82% | 1020.2 hPa | 0 mm | - | 109 W/m² | - |
| 1777989295 | 1.67° C | 83% | 1020.4 hPa | 0 mm | - | 109 W/m² | - |
| 1777988991 | 1.67° C | 84% | 1020.3 hPa | 0 mm | - | 74 W/m² | - |
| 1777988688 | 1.67° C | 83% | 1020.2 hPa | 0 mm | - | 109 W/m² | - |
| 1777988384 | 1.67° C | 83% | 1020.3 hPa | 0 mm | - | 65 W/m² | - |
| 1777988082 | 1.11° C | 83% | 1020.2 hPa | 0 mm | - | 70 W/m² | - |
| 1777987777 | 1.67° C | 82% | 1020.2 hPa | 0 mm | - | 55 W/m² | - |
| 1777987474 | 1.67° C | 82% | 1020.2 hPa | 0 mm | - | 47 W/m² | - |
| 1777987171 | 1.67° C | 82% | 1020.2 hPa | 0 mm | - | 48 W/m² | - |
| 1777986868 | 1.67° C | 82% | 1020.3 hPa | 0 mm | - | 56 W/m² | - |
| 1777986566 | 1.67° C | 83% | 1020.2 hPa | 0 mm | - | 59 W/m² | - |
| 1777986264 | 2.22° C | 82% | 1020 hPa | 0 mm | - | 55 W/m² | - |
* Rain latest hour (hover to see other rain measurements)
** Current wind speed in m/s (hover to see current wind gust speed)